Terminal Aerodrome Forecast
Issued by NWS

Current Version | Previous Version | Graphics & Text | Print | Product List | Glossary On
Versions: 1 2 3 4 5 6 7 8 9 10 11 12 13 14 15 16
000
FTUS41 KRNK 232341
TAFLWB
TAF
KLWB 232341Z 2400/2424 34003KT P6SM SKC
      TEMPO 2409/2413 1/4SM FG VV001
     FM241300 28004KT P6SM SCT100
     FM241600 30006KT P6SM BKN060=

USA.gov is the U.S. government's official web portal to all federal, state and local government web resources and services.